CPA138 YSSY-VHHH
Flight info
| Callsign | CPA138 |
|---|---|
| Flight time | N/A |
| Altitude | 40000 |
| Route | RIC H530 SURVO R340 AMN A461 TANAL/N0482F430 A461 ZAM A583 SABNO V542 BETTY |
| Aircraft | A359/H-SDE2E3GHIJ3J4J5LM1ORWXY/LB1D1 |
Departure
| Time | 2026-05-06 10:20 |
|---|---|
| Airport | Sydney Kingsford Smith International Airport (YSSY) |
Arrival
| Time | N/A |
|---|---|
| Airport | Hong Kong International Airport (VHHH) |
| Time | Latitude | Longitude | Altitude | Speed | Heading |
|---|---|---|---|---|---|
| 2026-05-06 09:35 | -33.93858 | 151.16980 | 27 ft | 0 kts | 253° |
| 2026-05-06 10:08 | -33.93853 | 151.16999 | 27 ft | 3 kts | 253° |
| 2026-05-06 10:08 | -33.93850 | 151.17023 | 27 ft | 3 kts | 251° |
| 2026-05-06 10:08 | -33.93841 | 151.17043 | 26 ft | 3 kts | 228° |
| 2026-05-06 10:08 | -33.93827 | 151.17058 | 26 ft | 3 kts | 208° |
| 2026-05-06 10:09 | -33.93813 | 151.17065 | 26 ft | 0 kts | 178° |
| 2026-05-06 10:12 | -33.93850 | 151.17068 | 27 ft | 10 kts | 172° |
| 2026-05-06 10:12 | -33.93924 | 151.17098 | 26 ft | 12 kts | 161° |
| 2026-05-06 10:12 | -33.93984 | 151.17171 | 31 ft | 13 kts | 98° |
| 2026-05-06 10:12 | -33.94035 | 151.17230 | 27 ft | 10 kts | 157° |
| 2026-05-06 10:13 | -33.94107 | 151.17255 | 28 ft | 11 kts | 167° |
| 2026-05-06 10:13 | -33.94192 | 151.17278 | 28 ft | 14 kts | 169° |
| 2026-05-06 10:13 | -33.94285 | 151.17300 | 30 ft | 14 kts | 168° |
| 2026-05-06 10:13 | -33.94381 | 151.17326 | 32 ft | 14 kts | 167° |
| 2026-05-06 10:14 | -33.94482 | 151.17354 | 32 ft | 16 kts | 167° |
| 2026-05-06 10:14 | -33.94596 | 151.17385 | 32 ft | 18 kts | 167° |
| 2026-05-06 10:14 | -33.94722 | 151.17420 | 31 ft | 20 kts | 167° |
| 2026-05-06 10:14 | -33.94867 | 151.17459 | 26 ft | 23 kts | 169° |
| 2026-05-06 10:15 | -33.95032 | 151.17499 | 27 ft | 25 kts | 168° |
| 2026-05-06 10:15 | -33.95206 | 151.17541 | 26 ft | 27 kts | 168° |
| 2026-05-06 10:15 | -33.95390 | 151.17588 | 28 ft | 27 kts | 167° |
| 2026-05-06 10:15 | -33.95570 | 151.17640 | 28 ft | 27 kts | 167° |
| 2026-05-06 10:16 | -33.95747 | 151.17686 | 31 ft | 25 kts | 169° |
| 2026-05-06 10:16 | -33.95877 | 151.17718 | 29 ft | 19 kts | 167° |
| 2026-05-06 10:16 | -33.96012 | 151.17754 | 29 ft | 20 kts | 168° |
| 2026-05-06 10:16 | -33.96152 | 151.17790 | 30 ft | 21 kts | 168° |
| 2026-05-06 10:17 | -33.96303 | 151.17830 | 29 ft | 18 kts | 168° |
| 2026-05-06 10:17 | -33.96366 | 151.17846 | 29 ft | 0 kts | 168° |
| 2026-05-06 10:17 | -33.96369 | 151.17847 | 29 ft | 4 kts | 168° |
| 2026-05-06 10:18 | -33.96423 | 151.17861 | 30 ft | 9 kts | 168° |
| 2026-05-06 10:18 | -33.96449 | 151.17913 | 30 ft | 8 kts | 84° |
| 2026-05-06 10:18 | -33.96438 | 151.17987 | 30 ft | 10 kts | 79° |
| 2026-05-06 10:18 | -33.96431 | 151.18033 | 30 ft | 0 kts | 80° |
| 2026-05-06 10:19 | -33.96429 | 151.18037 | 30 ft | 5 kts | 68° |
| 2026-05-06 10:19 | -33.96390 | 151.18051 | 30 ft | 7 kts | 359° |
| 2026-05-06 10:19 | -33.96335 | 151.18043 | 30 ft | 9 kts | 352° |
| 2026-05-06 10:19 | -33.96220 | 151.18014 | 27 ft | 41 kts | 347° |
| 2026-05-06 10:20 | -33.95714 | 151.17882 | 28 ft | 106 kts | 348° |
| 2026-05-06 10:20 | -33.94810 | 151.17646 | 29 ft | 159 kts | 348° |
| 2026-05-06 10:20 | -33.93687 | 151.17361 | 559 ft | 163 kts | 348° |
| 2026-05-06 10:20 | -33.92613 | 151.17044 | 1329 ft | 160 kts | 348° |
| 2026-05-06 10:21 | -33.91424 | 151.17103 | 1607 ft | 186 kts | 15° |
| 2026-05-06 10:21 | -33.90048 | 151.17041 | 1935 ft | 212 kts | 345° |
| 2026-05-06 10:21 | -33.88684 | 151.16174 | 2289 ft | 235 kts | 324° |
| 2026-05-06 10:21 | -33.87488 | 151.14711 | 2697 ft | 256 kts | 308° |
| 2026-05-06 10:22 | -33.86442 | 151.12896 | 3156 ft | 273 kts | 303° |
| 2026-05-06 10:22 | -33.85371 | 151.10930 | 3634 ft | 288 kts | 304° |
| 2026-05-06 10:22 | -33.84201 | 151.08902 | 4122 ft | 302 kts | 306° |
| 2026-05-06 10:22 | -33.82903 | 151.06849 | 4631 ft | 315 kts | 308° |
| 2026-05-06 10:23 | -33.81464 | 151.04908 | 5520 ft | 311 kts | 312° |
| 2026-05-06 10:23 | -33.80013 | 151.03044 | 6773 ft | 299 kts | 312° |
| 2026-05-06 10:23 | -33.78614 | 151.01263 | 7974 ft | 289 kts | 313° |
| 2026-05-06 10:23 | -33.77220 | 150.99499 | 8795 ft | 295 kts | 313° |
| 2026-05-06 10:24 | -33.75785 | 150.97694 | 9546 ft | 302 kts | 313° |
| 2026-05-06 10:24 | -33.74342 | 150.95885 | 10282 ft | 305 kts | 313° |
| 2026-05-06 10:24 | -33.72865 | 150.94039 | 11044 ft | 308 kts | 313° |
| 2026-05-06 10:24 | -33.71356 | 150.92155 | 11606 ft | 320 kts | 313° |
| 2026-05-06 10:25 | -33.69769 | 150.90174 | 11918 ft | 338 kts | 313° |
| 2026-05-06 10:25 | -33.68125 | 150.88126 | 12277 ft | 351 kts | 313° |
| 2026-05-06 10:25 | -33.66412 | 150.85994 | 12875 ft | 357 kts | 313° |
| 2026-05-06 10:25 | -33.64678 | 150.83838 | 13547 ft | 361 kts | 313° |
| 2026-05-06 10:26 | -33.62930 | 150.81666 | 14171 ft | 364 kts | 313° |
| 2026-05-06 10:26 | -33.61159 | 150.79467 | 14752 ft | 368 kts | 313° |
| 2026-05-06 10:26 | -33.59370 | 150.77247 | 15356 ft | 371 kts | 313° |
| 2026-05-06 10:26 | -33.57543 | 150.75034 | 15977 ft | 375 kts | 314° |
| 2026-05-06 10:27 | -33.55666 | 150.72849 | 16606 ft | 379 kts | 315° |
| 2026-05-06 10:27 | -33.53751 | 150.70660 | 17222 ft | 382 kts | 315° |
| 2026-05-06 10:27 | -33.51841 | 150.68482 | 17797 ft | 386 kts | 315° |
| 2026-05-06 10:27 | -33.49886 | 150.66247 | 18403 ft | 390 kts | 315° |
| 2026-05-06 10:28 | -33.47927 | 150.63998 | 18978 ft | 392 kts | 315° |
| 2026-05-06 10:28 | -33.45954 | 150.61727 | 19555 ft | 394 kts | 315° |
| 2026-05-06 10:28 | -33.43974 | 150.59443 | 20158 ft | 397 kts | 314° |
| 2026-05-06 10:28 | -33.41981 | 150.57140 | 20764 ft | 399 kts | 314° |
| 2026-05-06 10:29 | -33.39976 | 150.54826 | 21392 ft | 401 kts | 314° |
| 2026-05-06 10:29 | -33.37960 | 150.52513 | 22030 ft | 403 kts | 314° |
| 2026-05-06 10:29 | -33.35926 | 150.50171 | 22654 ft | 406 kts | 314° |
| 2026-05-06 10:29 | -33.33888 | 150.47818 | 23246 ft | 409 kts | 314° |
| 2026-05-06 10:30 | -33.31860 | 150.45478 | 23814 ft | 412 kts | 314° |
| 2026-05-06 10:30 | -33.29794 | 150.43098 | 24351 ft | 413 kts | 314° |
| 2026-05-06 10:30 | -33.27717 | 150.40708 | 24871 ft | 415 kts | 314° |
| 2026-05-06 10:30 | -33.25631 | 150.38310 | 25400 ft | 417 kts | 314° |
| 2026-05-06 10:31 | -33.23534 | 150.35903 | 25908 ft | 419 kts | 314° |
| 2026-05-06 10:31 | -33.21423 | 150.33487 | 26395 ft | 422 kts | 314° |
| 2026-05-06 10:31 | -33.19305 | 150.31062 | 26934 ft | 422 kts | 314° |
| 2026-05-06 10:31 | -33.17182 | 150.28634 | 27481 ft | 423 kts | 314° |
| 2026-05-06 10:32 | -33.15050 | 150.26195 | 27951 ft | 425 kts | 313° |
| 2026-05-06 10:32 | -33.12917 | 150.23750 | 28479 ft | 427 kts | 313° |
| 2026-05-06 10:32 | -33.10798 | 150.21318 | 28959 ft | 430 kts | 313° |
| 2026-05-06 10:32 | -33.08635 | 150.18842 | 29393 ft | 432 kts | 313° |
| 2026-05-06 10:33 | -33.06458 | 150.16357 | 29830 ft | 434 kts | 313° |
| 2026-05-06 10:33 | -33.04269 | 150.13862 | 30230 ft | 436 kts | 313° |
| 2026-05-06 10:33 | -33.02074 | 150.11363 | 30584 ft | 438 kts | 313° |
| 2026-05-06 10:33 | -32.99869 | 150.08852 | 30935 ft | 439 kts | 313° |
| 2026-05-06 10:34 | -32.97656 | 150.06336 | 31282 ft | 440 kts | 313° |
| 2026-05-06 10:34 | -32.95440 | 150.03816 | 31594 ft | 442 kts | 313° |
| 2026-05-06 10:34 | -32.93219 | 150.01294 | 32019 ft | 440 kts | 313° |
| 2026-05-06 10:34 | -32.91044 | 149.98827 | 32558 ft | 435 kts | 313° |
| 2026-05-06 10:35 | -32.88862 | 149.96356 | 33051 ft | 432 kts | 313° |
| 2026-05-06 10:35 | -32.86692 | 149.93896 | 33508 ft | 429 kts | 313° |
| 2026-05-06 10:35 | -32.84607 | 149.91534 | 33933 ft | 426 kts | 313° |
| 2026-05-06 10:35 | -32.82464 | 149.89106 | 34261 ft | 425 kts | 313° |
| 2026-05-06 10:36 | -32.80327 | 149.86685 | 34537 ft | 425 kts | 313° |
| 2026-05-06 10:36 | -32.78187 | 149.84263 | 34827 ft | 425 kts | 313° |
| 2026-05-06 10:36 | -32.76050 | 149.81849 | 35093 ft | 424 kts | 313° |
| 2026-05-06 10:36 | -32.73907 | 149.79439 | 35371 ft | 424 kts | 313° |
| 2026-05-06 10:37 | -32.71763 | 149.77026 | 35619 ft | 424 kts | 313° |
| 2026-05-06 10:37 | -32.69656 | 149.74648 | 35872 ft | 424 kts | 313° |
| 2026-05-06 10:37 | -32.67520 | 149.72235 | 36132 ft | 424 kts | 313° |
| 2026-05-06 10:37 | -32.65382 | 149.69823 | 36393 ft | 424 kts | 313° |
| 2026-05-06 10:38 | -32.63248 | 149.67415 | 36609 ft | 424 kts | 313° |
| 2026-05-06 10:38 | -32.61109 | 149.65007 | 36855 ft | 423 kts | 313° |
| 2026-05-06 10:38 | -32.58976 | 149.62611 | 37090 ft | 423 kts | 313° |
| 2026-05-06 10:38 | -32.56857 | 149.60189 | 37302 ft | 422 kts | 311° |
| 2026-05-06 10:39 | -32.54905 | 149.57596 | 37527 ft | 420 kts | 308° |
| 2026-05-06 10:39 | -32.53052 | 149.54987 | 37730 ft | 420 kts | 307° |
| 2026-05-06 10:39 | -32.51197 | 149.52322 | 37952 ft | 419 kts | 307° |
| 2026-05-06 10:39 | -32.49351 | 149.49644 | 38153 ft | 419 kts | 307° |
| 2026-05-06 10:40 | -32.47515 | 149.46973 | 38366 ft | 418 kts | 307° |
| 2026-05-06 10:40 | -32.45678 | 149.44301 | 38550 ft | 418 kts | 307° |
| 2026-05-06 10:40 | -32.43839 | 149.41631 | 38723 ft | 418 kts | 307° |
| 2026-05-06 10:40 | -32.41996 | 149.38963 | 38873 ft | 418 kts | 307° |
| 2026-05-06 10:41 | -32.40153 | 149.36299 | 39010 ft | 418 kts | 307° |
| 2026-05-06 10:41 | -32.38312 | 149.33642 | 39138 ft | 418 kts | 307° |
| 2026-05-06 10:41 | -32.36491 | 149.31017 | 39263 ft | 418 kts | 307° |
| 2026-05-06 10:41 | -32.34645 | 149.28358 | 39385 ft | 418 kts | 307° |
| 2026-05-06 10:42 | -32.32797 | 149.25698 | 39507 ft | 418 kts | 307° |
| 2026-05-06 10:42 | -32.30951 | 149.23043 | 39628 ft | 418 kts | 307° |
| 2026-05-06 10:42 | -32.29107 | 149.20392 | 39739 ft | 418 kts | 307° |
| 2026-05-06 10:42 | -32.27257 | 149.17735 | 39841 ft | 419 kts | 307° |
| 2026-05-06 10:43 | -32.25405 | 149.15076 | 39946 ft | 419 kts | 307° |
| 2026-05-06 10:43 | -32.23553 | 149.12418 | 40038 ft | 419 kts | 307° |
| 2026-05-06 10:44 | -32.18001 | 149.04460 | 40147 ft | 422 kts | 307° |
| 2026-05-06 10:44 | -32.14268 | 148.99127 | 40143 ft | 421 kts | 307° |
| 2026-05-06 10:45 | -32.10548 | 148.93821 | 40148 ft | 419 kts | 307° |
| 2026-05-06 10:45 | -32.06714 | 148.88648 | 40149 ft | 421 kts | 313° |
| 2026-05-06 10:46 | -32.02102 | 148.84418 | 40149 ft | 426 kts | 320° |
| 2026-05-06 10:46 | -31.97383 | 148.80732 | 40163 ft | 427 kts | 322° |
| 2026-05-06 10:47 | -31.92386 | 148.76931 | 40159 ft | 428 kts | 322° |
| 2026-05-06 10:47 | -31.87396 | 148.73125 | 40168 ft | 427 kts | 322° |
| 2026-05-06 10:48 | -31.82453 | 148.69335 | 40161 ft | 427 kts | 322° |
| 2026-05-06 10:48 | -31.77481 | 148.65519 | 40159 ft | 427 kts | 322° |
| 2026-05-06 10:49 | -31.72509 | 148.61708 | 40164 ft | 427 kts | 322° |
| 2026-05-06 10:49 | -31.67531 | 148.57899 | 40159 ft | 427 kts | 322° |
| 2026-05-06 10:50 | -31.62554 | 148.54095 | 40166 ft | 427 kts | 322° |
| 2026-05-06 10:50 | -31.57609 | 148.50322 | 40162 ft | 427 kts | 322° |
| 2026-05-06 10:51 | -31.52626 | 148.46524 | 40158 ft | 427 kts | 321° |
| 2026-05-06 10:51 | -31.47654 | 148.42740 | 40162 ft | 425 kts | 321° |
| 2026-05-06 10:52 | -31.42761 | 148.39021 | 40162 ft | 425 kts | 321° |
| 2026-05-06 10:52 | -31.37803 | 148.35256 | 40164 ft | 425 kts | 321° |
| 2026-05-06 10:53 | -31.32840 | 148.31492 | 40164 ft | 425 kts | 322° |
| 2026-05-06 10:53 | -31.27870 | 148.27731 | 40162 ft | 425 kts | 322° |
| 2026-05-06 10:54 | -31.22905 | 148.23975 | 40150 ft | 425 kts | 321° |
| 2026-05-06 10:54 | -31.17987 | 148.20261 | 40166 ft | 423 kts | 321° |
| 2026-05-06 10:55 | -31.13043 | 148.16531 | 40166 ft | 423 kts | 321° |
| 2026-05-06 10:55 | -31.08103 | 148.12808 | 40167 ft | 423 kts | 321° |
| 2026-05-06 10:56 | -31.03151 | 148.09089 | 40165 ft | 423 kts | 321° |
| 2026-05-06 10:56 | -30.98235 | 148.05391 | 40165 ft | 423 kts | 321° |
| 2026-05-06 10:57 | -30.93290 | 148.01676 | 40136 ft | 423 kts | 321° |
| 2026-05-06 10:57 | -30.88386 | 147.98000 | 40164 ft | 420 kts | 321° |
| 2026-05-06 10:58 | -30.83478 | 147.94326 | 40164 ft | 419 kts | 321° |
| 2026-05-06 10:58 | -30.78578 | 147.90660 | 40167 ft | 419 kts | 321° |
| 2026-05-06 10:59 | -30.73694 | 147.87010 | 40166 ft | 420 kts | 321° |
| 2026-05-06 10:59 | -30.68777 | 147.83342 | 40165 ft | 420 kts | 321° |
| 2026-05-06 11:00 | -30.64621 | 147.80246 | 40165 ft | 420 kts | 321° |
| 2026-05-06 11:00 | -30.59714 | 147.76597 | 40165 ft | 417 kts | 321° |
| 2026-05-06 11:01 | -30.54834 | 147.72971 | 40171 ft | 416 kts | 321° |
| 2026-05-06 11:01 | -30.49994 | 147.69376 | 40167 ft | 416 kts | 321° |
| 2026-05-06 11:02 | -30.45117 | 147.65763 | 40170 ft | 416 kts | 321° |
| 2026-05-06 11:02 | -30.40327 | 147.62213 | 40168 ft | 416 kts | 321° |
| 2026-05-06 11:03 | -30.35450 | 147.58602 | 40169 ft | 417 kts | 321° |
| 2026-05-06 11:03 | -30.30565 | 147.54996 | 40166 ft | 415 kts | 321° |
| 2026-05-06 11:04 | -30.25447 | 147.51843 | 40171 ft | 418 kts | 326° |
| 2026-05-06 11:04 | -30.20253 | 147.48915 | 40169 ft | 418 kts | 327° |
| 2026-05-06 11:05 | -30.15008 | 147.46001 | 40172 ft | 418 kts | 327° |
| 2026-05-06 11:05 | -30.09769 | 147.43091 | 40171 ft | 418 kts | 327° |
| 2026-05-06 11:06 | -30.04525 | 147.40173 | 40146 ft | 418 kts | 326° |
| 2026-05-06 11:06 | -29.99337 | 147.37289 | 40174 ft | 416 kts | 326° |
| 2026-05-06 11:07 | -29.94131 | 147.34396 | 40166 ft | 415 kts | 326° |
| 2026-05-06 11:07 | -29.88927 | 147.31506 | 40180 ft | 415 kts | 326° |
| 2026-05-06 11:08 | -29.83726 | 147.28622 | 40167 ft | 415 kts | 326° |
| 2026-05-06 11:08 | -29.78525 | 147.25741 | 40166 ft | 415 kts | 326° |
| 2026-05-06 11:09 | -29.73356 | 147.22883 | 40162 ft | 414 kts | 326° |
| 2026-05-06 11:09 | -29.68186 | 147.20029 | 40172 ft | 412 kts | 326° |
| 2026-05-06 11:10 | -29.63023 | 147.17180 | 40173 ft | 411 kts | 326° |
| 2026-05-06 11:10 | -29.57861 | 147.14333 | 40174 ft | 411 kts | 326° |
| 2026-05-06 11:11 | -29.52700 | 147.11491 | 40172 ft | 411 kts | 326° |
| 2026-05-06 11:11 | -29.47539 | 147.08652 | 40138 ft | 412 kts | 326° |
| 2026-05-06 11:12 | -29.42383 | 147.05823 | 40169 ft | 409 kts | 326° |
| 2026-05-06 11:12 | -29.37255 | 147.03010 | 40174 ft | 408 kts | 326° |
| 2026-05-06 11:13 | -29.32155 | 147.00213 | 40178 ft | 408 kts | 326° |
| 2026-05-06 11:13 | -29.27020 | 146.97400 | 40172 ft | 408 kts | 326° |
| 2026-05-06 11:14 | -29.21884 | 146.94590 | 40176 ft | 409 kts | 326° |
| 2026-05-06 11:14 | -29.16756 | 146.91790 | 40175 ft | 408 kts | 326° |
| 2026-05-06 11:15 | -29.12159 | 146.89285 | 40178 ft | 407 kts | 326° |
| 2026-05-06 11:15 | -29.07058 | 146.86505 | 40179 ft | 406 kts | 326° |
| 2026-05-06 11:16 | -29.01954 | 146.83724 | 40177 ft | 406 kts | 326° |
| 2026-05-06 11:16 | -28.96851 | 146.80949 | 40177 ft | 406 kts | 326° |
| 2026-05-06 11:17 | -28.91746 | 146.78175 | 40175 ft | 406 kts | 326° |
| 2026-05-06 11:17 | -28.86642 | 146.75406 | 40178 ft | 406 kts | 326° |
| 2026-05-06 11:18 | -28.81569 | 146.72656 | 40187 ft | 406 kts | 326° |
| 2026-05-06 11:18 | -28.76475 | 146.69863 | 40182 ft | 404 kts | 323° |
| 2026-05-06 11:19 | -28.71832 | 146.66422 | 40181 ft | 396 kts | 317° |
| 2026-05-06 11:19 | -28.67409 | 146.62698 | 40183 ft | 395 kts | 316° |
| 2026-05-06 11:20 | -28.63014 | 146.58929 | 40184 ft | 395 kts | 316° |
| 2026-05-06 11:20 | -28.58616 | 146.55170 | 40167 ft | 395 kts | 316° |
| 2026-05-06 11:21 | -28.54223 | 146.51436 | 40181 ft | 393 kts | 316° |
| 2026-05-06 11:21 | -28.49838 | 146.47716 | 40183 ft | 393 kts | 316° |
| 2026-05-06 11:22 | -28.45457 | 146.44003 | 40187 ft | 393 kts | 316° |
| 2026-05-06 11:22 | -28.41099 | 146.40312 | 40184 ft | 393 kts | 316° |
| 2026-05-06 11:23 | -28.36715 | 146.36605 | 40185 ft | 392 kts | 316° |
| 2026-05-06 11:23 | -28.32336 | 146.32906 | 40185 ft | 393 kts | 316° |
| 2026-05-06 11:24 | -28.27953 | 146.29205 | 40182 ft | 393 kts | 316° |
| 2026-05-06 11:24 | -28.23567 | 146.25508 | 40183 ft | 392 kts | 316° |
| 2026-05-06 11:25 | -28.19228 | 146.21855 | 40184 ft | 391 kts | 316° |
| 2026-05-06 11:25 | -28.14860 | 146.18180 | 40184 ft | 391 kts | 316° |
| 2026-05-06 11:26 | -28.10491 | 146.14506 | 40183 ft | 391 kts | 316° |
| 2026-05-06 11:26 | -28.06118 | 146.10835 | 40184 ft | 391 kts | 316° |
| 2026-05-06 11:27 | -28.01750 | 146.07171 | 40183 ft | 391 kts | 316° |
| 2026-05-06 11:27 | -27.97406 | 146.03531 | 40189 ft | 391 kts | 316° |
| 2026-05-06 11:28 | -27.93028 | 145.99867 | 40176 ft | 391 kts | 316° |
| 2026-05-06 11:28 | -27.88664 | 145.96220 | 40185 ft | 390 kts | 316° |
| 2026-05-06 11:29 | -27.84305 | 145.92579 | 40184 ft | 389 kts | 316° |
| 2026-05-06 11:29 | -27.79950 | 145.88944 | 40184 ft | 389 kts | 316° |
| 2026-05-06 11:30 | -27.75589 | 145.85308 | 40186 ft | 389 kts | 316° |
| 2026-05-06 11:30 | -27.71233 | 145.81681 | 40186 ft | 389 kts | 316° |
| 2026-05-06 11:31 | -27.66870 | 145.78052 | 40188 ft | 389 kts | 316° |
| 2026-05-06 11:31 | -27.62537 | 145.74449 | 40159 ft | 390 kts | 316° |
| 2026-05-06 11:32 | -27.58168 | 145.70823 | 40177 ft | 389 kts | 316° |
| 2026-05-06 11:32 | -27.53810 | 145.67209 | 40181 ft | 389 kts | 316° |
| 2026-05-06 11:33 | -27.49451 | 145.63598 | 40189 ft | 389 kts | 316° |
| 2026-05-06 11:33 | -27.45099 | 145.59995 | 40179 ft | 389 kts | 316° |
| 2026-05-06 11:34 | -27.40768 | 145.56414 | 40186 ft | 389 kts | 316° |
| 2026-05-06 11:34 | -27.36408 | 145.52812 | 40191 ft | 389 kts | 316° |
| 2026-05-06 11:35 | -27.32049 | 145.49215 | 40188 ft | 389 kts | 317° |
| 2026-05-06 11:35 | -27.27682 | 145.45616 | 40184 ft | 389 kts | 317° |
| 2026-05-06 11:36 | -27.23325 | 145.42032 | 40187 ft | 388 kts | 317° |
| 2026-05-06 11:36 | -27.18996 | 145.38470 | 40188 ft | 388 kts | 317° |
| 2026-05-06 11:37 | -27.14638 | 145.34885 | 40183 ft | 388 kts | 317° |
| 2026-05-06 11:37 | -27.10283 | 145.31308 | 40184 ft | 388 kts | 317° |
| 2026-05-06 11:38 | -27.05923 | 145.27733 | 40188 ft | 388 kts | 317° |
| 2026-05-06 11:38 | -27.01567 | 145.24163 | 40186 ft | 388 kts | 317° |
| 2026-05-06 11:39 | -26.97202 | 145.20589 | 40170 ft | 388 kts | 317° |
| 2026-05-06 11:39 | -26.92869 | 145.17046 | 40186 ft | 388 kts | 317° |
| 2026-05-06 11:40 | -26.88515 | 145.13489 | 40186 ft | 388 kts | 317° |
| 2026-05-06 11:40 | -26.84157 | 145.09931 | 40185 ft | 388 kts | 317° |
| 2026-05-06 11:41 | -26.79796 | 145.06380 | 40185 ft | 388 kts | 317° |
| 2026-05-06 11:41 | -26.75436 | 145.02828 | 40185 ft | 388 kts | 317° |
| 2026-05-06 11:42 | -26.71109 | 144.99303 | 40185 ft | 388 kts | 317° |
| 2026-05-06 11:42 | -26.66743 | 144.95752 | 40187 ft | 388 kts | 317° |
| 2026-05-06 11:43 | -26.62375 | 144.92204 | 40184 ft | 388 kts | 317° |
| 2026-05-06 11:43 | -26.58016 | 144.88668 | 40184 ft | 387 kts | 317° |
| 2026-05-06 11:44 | -26.51469 | 144.83361 | 40176 ft | 387 kts | 317° |
| 2026-05-06 11:44 | -26.47138 | 144.79855 | 40179 ft | 387 kts | 317° |
| 2026-05-06 11:45 | -26.42758 | 144.76313 | 40178 ft | 387 kts | 317° |
| 2026-05-06 11:45 | -26.38614 | 144.72963 | 40177 ft | 389 kts | 317° |
| 2026-05-06 11:46 | -26.34222 | 144.69417 | 40182 ft | 389 kts | 317° |
| 2026-05-06 11:46 | -26.29873 | 144.65912 | 40182 ft | 388 kts | 317° |
| 2026-05-06 11:47 | -26.25502 | 144.62391 | 40180 ft | 388 kts | 317° |
| 2026-05-06 11:47 | -26.21136 | 144.58876 | 40178 ft | 388 kts | 317° |
| 2026-05-06 11:48 | -26.16763 | 144.55359 | 40178 ft | 388 kts | 317° |
| 2026-05-06 11:48 | -26.12389 | 144.51845 | 40175 ft | 388 kts | 317° |
| 2026-05-06 11:49 | -26.08013 | 144.48332 | 40177 ft | 388 kts | 317° |
| 2026-05-06 11:49 | -26.03667 | 144.44847 | 40176 ft | 388 kts | 317° |
| 2026-05-06 11:50 | -25.99284 | 144.41336 | 40157 ft | 388 kts | 317° |
| 2026-05-06 11:50 | -25.94905 | 144.37831 | 40172 ft | 388 kts | 317° |
| 2026-05-06 11:51 | -25.90523 | 144.34328 | 40171 ft | 388 kts | 317° |
| 2026-05-06 11:51 | -25.86137 | 144.30831 | 40170 ft | 388 kts | 317° |
| 2026-05-06 11:52 | -25.81785 | 144.27355 | 40174 ft | 388 kts | 317° |
| 2026-05-06 11:52 | -25.77408 | 144.23861 | 40180 ft | 388 kts | 317° |
| 2026-05-06 11:53 | -25.73021 | 144.20364 | 40170 ft | 388 kts | 317° |
| 2026-05-06 11:53 | -25.68634 | 144.16873 | 40170 ft | 389 kts | 317° |
| 2026-05-06 11:54 | -25.64236 | 144.13376 | 40170 ft | 388 kts | 317° |
| 2026-05-06 11:54 | -25.59877 | 144.09914 | 40167 ft | 388 kts | 317° |
| 2026-05-06 11:55 | -25.55483 | 144.06427 | 40168 ft | 388 kts | 317° |
| 2026-05-06 11:55 | -25.51091 | 144.02944 | 40168 ft | 388 kts | 317° |
| 2026-05-06 11:56 | -25.46697 | 143.99463 | 40166 ft | 388 kts | 317° |
| 2026-05-06 11:56 | -25.42303 | 143.95986 | 40165 ft | 388 kts | 317° |
| 2026-05-06 11:57 | -25.37905 | 143.92507 | 40162 ft | 388 kts | 317° |
| 2026-05-06 11:57 | -25.33511 | 143.89036 | 40154 ft | 389 kts | 317° |
| 2026-05-06 11:58 | -25.29141 | 143.85587 | 40160 ft | 388 kts | 317° |
| 2026-05-06 11:58 | -25.24748 | 143.82123 | 40158 ft | 388 kts | 317° |
| 2026-05-06 11:59 | -25.20348 | 143.78656 | 40153 ft | 388 kts | 317° |
| 2026-05-06 11:59 | -25.15950 | 143.75194 | 40155 ft | 388 kts | 318° |
| 2026-05-06 12:00 | -25.11551 | 143.71735 | 40156 ft | 389 kts | 318° |
| 2026-05-06 12:00 | -25.07148 | 143.68275 | 40151 ft | 388 kts | 318° |
| 2026-05-06 12:01 | -25.02775 | 143.64842 | 40140 ft | 388 kts | 318° |
| 2026-05-06 12:01 | -24.98363 | 143.61381 | 40152 ft | 389 kts | 318° |
| 2026-05-06 12:02 | -24.93948 | 143.57921 | 40152 ft | 389 kts | 318° |
| 2026-05-06 12:02 | -24.89540 | 143.54459 | 40153 ft | 389 kts | 318° |
| 2026-05-06 12:03 | -24.85151 | 143.51030 | 40153 ft | 389 kts | 318° |
| 2026-05-06 12:03 | -24.80729 | 143.47580 | 40148 ft | 390 kts | 318° |
| 2026-05-06 12:04 | -24.76312 | 143.44133 | 40148 ft | 390 kts | 318° |
| 2026-05-06 12:04 | -24.71888 | 143.40682 | 40148 ft | 390 kts | 318° |
| 2026-05-06 12:05 | -24.67461 | 143.37230 | 40145 ft | 391 kts | 318° |
| 2026-05-06 12:05 | -24.63026 | 143.33776 | 40146 ft | 391 kts | 318° |
| 2026-05-06 12:06 | -24.59331 | 143.30902 | 40145 ft | 391 kts | 318° |
| 2026-05-06 12:06 | -24.54168 | 143.26888 | 40140 ft | 391 kts | 318° |
| 2026-05-06 12:07 | -24.49725 | 143.23437 | 40146 ft | 391 kts | 318° |
| 2026-05-06 12:07 | -24.45278 | 143.19987 | 40137 ft | 391 kts | 318° |
| 2026-05-06 12:08 | -24.40836 | 143.16543 | 40140 ft | 391 kts | 318° |
| 2026-05-06 12:08 | -24.37142 | 143.13681 | 40136 ft | 392 kts | 318° |
| 2026-05-06 12:09 | -24.32677 | 143.10223 | 40137 ft | 393 kts | 318° |
| 2026-05-06 12:09 | -24.27478 | 143.06203 | 40137 ft | 393 kts | 318° |
| 2026-05-06 12:10 | -24.23727 | 143.03305 | 40138 ft | 393 kts | 318° |
| 2026-05-06 12:10 | -24.19287 | 142.99878 | 40137 ft | 393 kts | 318° |
| 2026-05-06 12:11 | -24.14809 | 142.96424 | 40139 ft | 394 kts | 318° |
| 2026-05-06 12:11 | -24.10332 | 142.92973 | 40137 ft | 394 kts | 318° |
| 2026-05-06 12:12 | -24.05851 | 142.89523 | 40109 ft | 394 kts | 319° |
| 2026-05-06 12:12 | -24.01361 | 142.86067 | 40138 ft | 396 kts | 319° |
| 2026-05-06 12:13 | -23.96883 | 142.82625 | 40132 ft | 396 kts | 319° |
| 2026-05-06 12:13 | -23.92371 | 142.79160 | 40133 ft | 396 kts | 319° |
| 2026-05-06 12:14 | -23.87863 | 142.75702 | 40135 ft | 396 kts | 319° |
| 2026-05-06 12:14 | -23.83346 | 142.72239 | 40135 ft | 397 kts | 319° |
| 2026-05-06 12:15 | -23.78856 | 142.68799 | 40128 ft | 397 kts | 319° |
| 2026-05-06 12:15 | -23.74339 | 142.65343 | 40090 ft | 397 kts | 319° |
| 2026-05-06 12:16 | -23.69811 | 142.61879 | 40128 ft | 399 kts | 319° |
| 2026-05-06 12:16 | -23.65266 | 142.58406 | 40125 ft | 399 kts | 319° |
| 2026-05-06 12:17 | -23.60713 | 142.54931 | 40124 ft | 399 kts | 319° |
| 2026-05-06 12:17 | -23.56192 | 142.51484 | 40128 ft | 399 kts | 319° |
| 2026-05-06 12:18 | -23.51637 | 142.48013 | 40124 ft | 399 kts | 319° |
| 2026-05-06 12:18 | -23.47085 | 142.44547 | 40124 ft | 399 kts | 319° |
| 2026-05-06 12:19 | -23.42527 | 142.41080 | 40121 ft | 399 kts | 319° |
| 2026-05-06 12:19 | -23.37969 | 142.37614 | 40118 ft | 401 kts | 319° |
| 2026-05-06 12:20 | -23.33387 | 142.34134 | 40119 ft | 402 kts | 319° |
| 2026-05-06 12:20 | -23.28836 | 142.30681 | 40115 ft | 402 kts | 319° |
| 2026-05-06 12:21 | -23.24253 | 142.27207 | 40115 ft | 402 kts | 319° |
| 2026-05-06 12:21 | -23.19660 | 142.23728 | 40115 ft | 402 kts | 319° |
| 2026-05-06 12:22 | -23.15072 | 142.20255 | 40113 ft | 402 kts | 319° |
| 2026-05-06 12:22 | -23.10475 | 142.16779 | 40113 ft | 402 kts | 319° |
| 2026-05-06 12:23 | -23.05880 | 142.13307 | 40109 ft | 403 kts | 319° |
| 2026-05-06 12:23 | -23.01296 | 142.09846 | 40110 ft | 404 kts | 319° |
| 2026-05-06 12:24 | -22.96678 | 142.06363 | 40110 ft | 404 kts | 319° |
| 2026-05-06 12:24 | -22.92059 | 142.02883 | 40110 ft | 404 kts | 319° |
| 2026-05-06 12:25 | -22.87440 | 141.99404 | 40108 ft | 405 kts | 319° |
| 2026-05-06 12:25 | -22.82812 | 141.95922 | 40106 ft | 405 kts | 319° |
| 2026-05-06 12:26 | -22.78214 | 141.92466 | 40104 ft | 405 kts | 319° |
| 2026-05-06 12:26 | -22.73585 | 141.88989 | 40102 ft | 406 kts | 319° |
| 2026-05-06 12:27 | -22.68938 | 141.85501 | 40105 ft | 407 kts | 319° |
| 2026-05-06 12:27 | -22.64283 | 141.82014 | 40104 ft | 407 kts | 319° |
| 2026-05-06 12:28 | -22.59629 | 141.78527 | 40109 ft | 407 kts | 319° |
| 2026-05-06 12:28 | -22.54969 | 141.75037 | 40111 ft | 408 kts | 319° |
| 2026-05-06 12:29 | -22.50331 | 141.71568 | 40114 ft | 408 kts | 319° |
| 2026-05-06 12:29 | -22.45667 | 141.68083 | 40094 ft | 408 kts | 319° |
| 2026-05-06 12:30 | -22.40998 | 141.64598 | 40111 ft | 408 kts | 319° |
| 2026-05-06 12:30 | -22.36329 | 141.61115 | 40108 ft | 408 kts | 319° |
| 2026-05-06 12:31 | -22.31659 | 141.57634 | 40111 ft | 408 kts | 319° |